sensor_id;sensor_type;location;lat;lon;timestamp;pressure;altitude;pressure_sealevel;temperature;humidity
48053;BME280;33824;51.600;5.718;2023-02-11T00:01:34;103286.34;;;7.35;93.30
48053;BME280;33824;51.600;5.718;2023-02-11T00:04:01;103276.50;;;7.37;92.56
48053;BME280;33824;51.600;5.718;2023-02-11T00:06:28;103280.88;;;7.38;92.65
48053;BME280;33824;51.600;5.718;2023-02-11T00:08:55;103279.38;;;7.34;93.08
48053;BME280;33824;51.600;5.718;2023-02-11T00:11:22;103274.81;;;7.36;92.45
48053;BME280;33824;51.600;5.718;2023-02-11T00:13:50;103273.66;;;7.40;92.89
48053;BME280;33824;51.600;5.718;2023-02-11T00:16:17;103268.34;;;7.40;92.34
48053;BME280;33824;51.600;5.718;2023-02-11T00:18:44;103269.69;;;7.47;92.02
48053;BME280;33824;51.600;5.718;2023-02-11T00:21:13;103273.66;;;7.40;91.94
48053;BME280;33824;51.600;5.718;2023-02-11T00:23:39;103263.34;;;7.49;91.76
48053;BME280;33824;51.600;5.718;2023-02-11T00:26:12;103261.44;;;7.37;91.65
48053;BME280;33824;51.600;5.718;2023-02-11T00:28:38;103257.66;;;7.41;92.04
48053;BME280;33824;51.600;5.718;2023-02-11T00:31:03;103271.22;;;7.37;92.50
48053;BME280;33824;51.600;5.718;2023-02-11T00:33:29;103264.97;;;7.38;92.29
48053;BME280;33824;51.600;5.718;2023-02-11T00:35:54;103266.47;;;7.42;91.99
48053;BME280;33824;51.600;5.718;2023-02-11T00:38:20;103267.41;;;7.41;91.89
48053;BME280;33824;51.600;5.718;2023-02-11T00:40:46;103258.50;;;7.42;92.09
48053;BME280;33824;51.600;5.718;2023-02-11T00:43:11;103251.84;;;7.35;92.53
48053;BME280;33824;51.600;5.718;2023-02-11T00:45:37;103252.16;;;7.30;92.46
48053;BME280;33824;51.600;5.718;2023-02-11T00:48:02;103253.69;;;7.34;92.38
48053;BME280;33824;51.600;5.718;2023-02-11T00:50:28;103254.44;;;7.36;92.53
48053;BME280;33824;51.600;5.718;2023-02-11T00:52:53;103256.03;;;7.39;92.16
48053;BME280;33824;51.600;5.718;2023-02-11T00:55:19;103254.44;;;7.36;92.17
48053;BME280;33824;51.600;5.718;2023-02-11T00:57:44;103261.25;;;7.40;91.72
48053;BME280;33824;51.600;5.718;2023-02-11T01:00:12;103276.41;;;7.38;91.43
48053;BME280;33824;51.600;5.718;2023-02-11T01:02:38;103274.53;;;7.40;91.60
48053;BME280;33824;51.600;5.718;2023-02-11T01:05:04;103278.97;;;7.40;91.79
48053;BME280;33824;51.600;5.718;2023-02-11T01:07:30;103274.53;;;7.40;91.52
48053;BME280;33824;51.600;5.718;2023-02-11T01:09:55;103265.50;;;7.43;91.19
48053;BME280;33824;51.600;5.718;2023-02-11T01:12:22;103274.53;;;7.40;91.23
48053;BME280;33824;51.600;5.718;2023-02-11T01:14:47;103267.63;;;7.38;91.75
48053;BME280;33824;51.600;5.718;2023-02-11T01:17:14;103262.38;;;7.36;91.62
48053;BME280;33824;51.600;5.718;2023-02-11T01:19:39;103280.88;;;7.38;91.26
48053;BME280;33824;51.600;5.718;2023-02-11T01:22:05;103274.91;;;7.34;91.93
48053;BME280;33824;51.600;5.718;2023-02-11T01:24:30;103274.13;;;7.32;91.77
48053;BME280;33824;51.600;5.718;2023-02-11T01:26:56;103277.66;;;7.33;92.08
48053;BME280;33824;51.600;5.718;2023-02-11T01:29:22;103281.16;;;7.33;91.71
48053;BME280;33824;51.600;5.718;2023-02-11T01:31:47;103275.06;;;7.31;91.40
48053;BME280;33824;51.600;5.718;2023-02-11T01:34:13;103275.06;;;7.31;91.71
48053;BME280;33824;51.600;5.718;2023-02-11T01:36:39;103268.75;;;7.34;91.81
48053;BME280;33824;51.600;5.718;2023-02-11T01:39:05;103260.13;;;7.30;91.61
48053;BME280;33824;51.600;5.718;2023-02-11T01:41:31;103260.13;;;7.30;91.61
48053;BME280;33824;51.600;5.718;2023-02-11T01:44:31;103254.13;;;7.12;91.64
48053;BME280;33824;51.600;5.718;2023-02-11T01:46:59;103232.22;;;7.23;92.19
48053;BME280;33824;51.600;5.718;2023-02-11T01:49:30;103228.25;;;7.16;92.27
48053;BME280;33824;51.600;5.718;2023-02-11T01:52:08;103225.59;;;7.16;91.72
48053;BME280;33824;51.600;5.718;2023-02-11T01:54:41;103235.19;;;7.18;91.62
48053;BME280;33824;51.600;5.718;2023-02-11T01:57:33;103223.13;;;7.13;92.19
48053;BME280;33824;51.600;5.718;2023-02-11T02:10:30;103226.84;;;7.10;92.63
48053;BME280;33824;51.600;5.718;2023-02-11T02:12:58;103227.03;;;7.07;92.47
48053;BME280;33824;51.600;5.718;2023-02-11T02:15:29;103251.53;;;6.97;92.60
48053;BME280;33824;51.600;5.718;2023-02-11T02:21:09;103261.75;;;6.89;92.46
48053;BME280;33824;51.600;5.718;2023-02-11T02:26:38;103244.03;;;6.89;93.35
48053;BME280;33824;51.600;5.718;2023-02-11T02:32:20;103235.41;;;6.86;93.60
48053;BME280;33824;51.600;5.718;2023-02-11T02:34:53;103237.53;;;6.95;93.29
48053;BME280;33824;51.600;5.718;2023-02-11T02:40:09;103216.84;;;6.86;93.86
48053;BME280;33824;51.600;5.718;2023-02-11T02:42:39;103214.69;;;6.92;93.62
48053;BME280;33824;51.600;5.718;2023-02-11T02:45:06;103203.13;;;6.93;94.07
48053;BME280;33824;51.600;5.718;2023-02-11T02:47:33;103204.91;;;6.93;93.76
48053;BME280;33824;51.600;5.718;2023-02-11T02:49:59;103213.94;;;6.90;94.19
48053;BME280;33824;51.600;5.718;2023-02-11T02:52:35;103213.19;;;6.88;93.98
48053;BME280;33824;51.600;5.718;2023-02-11T02:55:11;103225.94;;;6.82;94.41
48053;BME280;33824;51.600;5.718;2023-02-11T02:58:03;103243.09;;;6.76;94.00
48053;BME280;33824;51.600;5.718;2023-02-11T03:00:50;103235.13;;;6.76;94.05
48053;BME280;33824;51.600;5.718;2023-02-11T03:03:47;103222.22;;;6.70;94.19
48053;BME280;33824;51.600;5.718;2023-02-11T03:06:35;103219.41;;;6.73;94.28
48053;BME280;33824;51.600;5.718;2023-02-11T03:09:28;103212.91;;;6.63;94.56
48053;BME280;33824;51.600;5.718;2023-02-11T03:11:56;103210.31;;;6.77;95.48
48053;BME280;33824;51.600;5.718;2023-02-11T03:14:24;103216.56;;;6.76;95.13
48053;BME280;33824;51.600;5.718;2023-02-11T03:16:53;103210.13;;;6.80;95.04
48053;BME280;33824;51.600;5.718;2023-02-11T03:19:24;103200.28;;;6.82;95.11
48053;BME280;33824;51.600;5.718;2023-02-11T03:21:52;103209.47;;;6.91;94.52
48053;BME280;33824;51.600;5.718;2023-02-11T03:24:32;103204.44;;;6.72;94.51
48053;BME280;33824;51.600;5.718;2023-02-11T03:29:43;103217.56;;;6.73;95.14
48053;BME280;33824;51.600;5.718;2023-02-11T03:32:26;103215.38;;;6.66;95.57
48053;BME280;33824;51.600;5.718;2023-02-11T03:35:00;103216.75;;;6.73;95.23
48053;BME280;33824;51.600;5.718;2023-02-11T03:37:51;103222.84;;;6.59;95.15
48053;BME280;33824;51.600;5.718;2023-02-11T03:40:21;103222.22;;;6.70;95.57
48053;BME280;33824;51.600;5.718;2023-02-11T03:42:52;103218.81;;;6.68;95.49
48053;BME280;33824;51.600;5.718;2023-02-11T03:45:21;103215.63;;;6.77;95.23
48053;BME280;33824;51.600;5.718;2023-02-11T03:47:52;103213.44;;;6.69;95.23
48053;BME280;33824;51.600;5.718;2023-02-11T03:50:19;103203.50;;;6.73;95.37
48053;BME280;33824;51.600;5.718;2023-02-11T03:52:47;103215.31;;;6.67;95.85
48053;BME280;33824;51.600;5.718;2023-02-11T03:55:17;103210.09;;;6.66;95.58
48053;BME280;33824;51.600;5.718;2023-02-11T03:57:43;103205.38;;;6.71;95.87
48053;BME280;33824;51.600;5.718;2023-02-11T04:00:10;103197.59;;;6.68;96.42
48053;BME280;33824;51.600;5.718;2023-02-11T04:02:37;103193.91;;;6.70;95.86
48053;BME280;33824;51.600;5.718;2023-02-11T04:05:05;103190.84;;;6.62;96.59
48053;BME280;33824;51.600;5.718;2023-02-11T04:07:31;103186.22;;;6.66;96.86
48053;BME280;33824;51.600;5.718;2023-02-11T04:09:57;103181.78;;;6.66;96.28
48053;BME280;33824;51.600;5.718;2023-02-11T04:12:23;103176.47;;;6.66;96.42
48053;BME280;33824;51.600;5.718;2023-02-11T04:14:48;103172.03;;;6.67;96.64
48053;BME280;33824;51.600;5.718;2023-02-11T04:17:14;103160.41;;;6.69;96.68
48053;BME280;33824;51.600;5.718;2023-02-11T04:19:39;103170.16;;;6.69;96.84
48053;BME280;33824;51.600;5.718;2023-02-11T04:22:05;103170.81;;;6.72;96.72
48053;BME280;33824;51.600;5.718;2023-02-11T04:24:33;103179.63;;;6.73;96.94
48053;BME280;33824;51.600;5.718;2023-02-11T04:26:59;103183.03;;;6.75;96.56
48053;BME280;33824;51.600;5.718;2023-02-11T04:29:25;103183.09;;;6.73;96.88
48053;BME280;33824;51.600;5.718;2023-02-11T04:31:51;103185.59;;;6.77;96.66
48053;BME280;33824;51.600;5.718;2023-02-11T04:34:16;103187.47;;;6.74;97.01
48053;BME280;33824;51.600;5.718;2023-02-11T04:36:42;103189.00;;;6.79;97.01
48053;BME280;33824;51.600;5.718;2023-02-11T04:39:07;103189.94;;;6.78;96.75
48053;BME280;33824;51.600;5.718;2023-02-11T04:41:33;103198.47;;;6.83;96.61
48053;BME280;33824;51.600;5.718;2023-02-11T04:43:58;103203.88;;;6.81;96.61
48053;BME280;33824;51.600;5.718;2023-02-11T04:46:26;103203.59;;;6.86;96.75
48053;BME280;33824;51.600;5.718;2023-02-11T04:48:51;103198.88;;;6.91;96.53
48053;BME280;33824;51.600;5.718;2023-02-11T04:51:17;103210.06;;;6.96;96.38
48053;BME280;33824;51.600;5.718;2023-02-11T04:53:42;103209.09;;;6.97;96.17
48053;BME280;33824;51.600;5.718;2023-02-11T04:56:08;103205.97;;;7.04;95.73
48053;BME280;33824;51.600;5.718;2023-02-11T04:58:33;103202.56;;;7.02;95.41
48053;BME280;33824;51.600;5.718;2023-02-11T05:01:10;103197.28;;;6.88;95.51
48053;BME280;33824;51.600;5.718;2023-02-11T05:03:36;103200.13;;;6.99;96.19
48053;BME280;33824;51.600;5.718;2023-02-11T05:06:03;103205.22;;;7.02;96.46
48053;BME280;33824;51.600;5.718;2023-02-11T05:08:29;103198.88;;;7.05;95.82
48053;BME280;33824;51.600;5.718;2023-02-11T05:10:55;103196.03;;;7.08;95.73
48053;BME280;33824;51.600;5.718;2023-02-11T05:13:20;103195.19;;;7.07;96.17
48053;BME280;33824;51.600;5.718;2023-02-11T05:15:46;103195.09;;;7.09;95.46
48053;BME280;33824;51.600;5.718;2023-02-11T05:18:12;103205.69;;;7.09;96.05
48053;BME280;33824;51.600;5.718;2023-02-11T05:20:43;103202.78;;;6.99;96.38
48053;BME280;33824;51.600;5.718;2023-02-11T05:23:09;103189.41;;;7.15;96.36
48053;BME280;33824;51.600;5.718;2023-02-11T05:25:35;103189.41;;;7.15;95.79
48053;BME280;33824;51.600;5.718;2023-02-11T05:28:02;103187.50;;;7.17;95.95
48053;BME280;33824;51.600;5.718;2023-02-11T05:30:29;103193.88;;;7.14;96.30
48053;BME280;33824;51.600;5.718;2023-02-11T05:32:54;103183.47;;;7.11;96.50
48053;BME280;33824;51.600;5.718;2023-02-11T05:35:20;103194.53;;;7.18;96.81
48053;BME280;33824;51.600;5.718;2023-02-11T05:37:46;103195.28;;;7.20;96.38
48053;BME280;33824;51.600;5.718;2023-02-11T05:40:12;103193.41;;;7.22;96.37
48053;BME280;33824;51.600;5.718;2023-02-11T05:42:37;103191.69;;;7.21;96.22
48053;BME280;33824;51.600;5.718;2023-02-11T05:45:03;103189.03;;;7.21;96.31
48053;BME280;33824;51.600;5.718;2023-02-11T05:47:32;103181.00;;;7.22;96.23
48053;BME280;33824;51.600;5.718;2023-02-11T05:49:58;103178.41;;;7.21;96.66
48053;BME280;33824;51.600;5.718;2023-02-11T05:52:23;103185.31;;;7.23;96.77
48053;BME280;33824;51.600;5.718;2023-02-11T05:54:49;103192.06;;;7.29;96.24
48053;BME280;33824;51.600;5.718;2023-02-11T05:57:16;103189.41;;;7.29;95.87
48053;BME280;33824;51.600;5.718;2023-02-11T05:59:42;103197.94;;;7.34;95.93
48053;BME280;33824;51.600;5.718;2023-02-11T06:02:08;103195.94;;;7.38;95.74
48053;BME280;33824;51.600;5.718;2023-02-11T06:04:34;103199.25;;;7.41;95.50
48053;BME280;33824;51.600;5.718;2023-02-11T06:07:00;103199.53;;;7.37;95.59
48053;BME280;33824;51.600;5.718;2023-02-11T06:09:26;103198.88;;;7.33;96.09
48053;BME280;33824;51.600;5.718;2023-02-11T06:11:52;103197.75;;;7.37;96.40
48053;BME280;33824;51.600;5.718;2023-02-11T06:14:17;103194.50;;;7.32;96.49
48053;BME280;33824;51.600;5.718;2023-02-11T06:16:43;103199.53;;;7.37;96.15
48053;BME280;33824;51.600;5.718;2023-02-11T06:19:09;103193.38;;;7.36;96.62
48053;BME280;33824;51.600;5.718;2023-02-11T06:21:34;103205.97;;;7.47;95.84
48053;BME280;33824;51.600;5.718;2023-02-11T06:24:00;103204.56;;;7.41;96.18
48053;BME280;33824;51.600;5.718;2023-02-11T06:26:25;103206.91;;;7.46;96.17
48053;BME280;33824;51.600;5.718;2023-02-11T06:28:51;103202.00;;;7.40;96.33
48053;BME280;33824;51.600;5.718;2023-02-11T06:31:17;103201.41;;;7.35;96.63
48053;BME280;33824;51.600;5.718;2023-02-11T06:33:43;103206.56;;;7.38;96.45
48053;BME280;33824;51.600;5.718;2023-02-11T06:36:12;103211.22;;;7.34;96.70
48053;BME280;33824;51.600;5.718;2023-02-11T06:38:38;103220.13;;;7.33;96.83
48053;BME280;33824;51.600;5.718;2023-02-11T06:41:03;103216.03;;;7.28;97.37
48053;BME280;33824;51.600;5.718;2023-02-11T06:43:29;103213.94;;;7.33;97.45
48053;BME280;33824;51.600;5.718;2023-02-11T06:45:54;103216.41;;;7.36;96.75
48053;BME280;33824;51.600;5.718;2023-02-11T06:48:21;103216.31;;;7.37;97.14
48053;BME280;33824;51.600;5.718;2023-02-11T06:50:47;103212.81;;;7.37;96.84
48053;BME280;33824;51.600;5.718;2023-02-11T06:53:13;103211.03;;;7.37;96.87
48053;BME280;33824;51.600;5.718;2023-02-11T06:55:38;103208.56;;;7.34;97.41
48053;BME280;33824;51.600;5.718;2023-02-11T06:58:04;103209.75;;;7.43;96.94
48053;BME280;33824;51.600;5.718;2023-02-11T07:00:29;103208.16;;;7.40;97.13
48053;BME280;33824;51.600;5.718;2023-02-11T07:02:55;103211.75;;;7.39;96.58
48053;BME280;33824;51.600;5.718;2023-02-11T07:05:24;103221.25;;;7.43;97.11
48053;BME280;33824;51.600;5.718;2023-02-11T07:07:50;103219.44;;;7.44;97.36
48053;BME280;33824;51.600;5.718;2023-02-11T07:10:15;103225.59;;;7.44;97.00
48053;BME280;33824;51.600;5.718;2023-02-11T07:12:40;103218.78;;;7.40;96.98
48053;BME280;33824;51.600;5.718;2023-02-11T07:15:06;103222.38;;;7.39;97.68
48053;BME280;33824;51.600;5.718;2023-02-11T07:17:33;103223.22;;;7.40;97.71
48053;BME280;33824;51.600;5.718;2023-02-11T07:19:59;103229.59;;;7.37;97.98
48053;BME280;33824;51.600;5.718;2023-02-11T07:22:25;103230.44;;;7.38;97.93
48053;BME280;33824;51.600;5.718;2023-02-11T07:24:50;103231.97;;;7.42;97.98
48053;BME280;33824;51.600;5.718;2023-02-11T07:27:16;103243.81;;;7.36;98.66
48053;BME280;33824;51.600;5.718;2023-02-11T07:29:41;103235.75;;;7.38;98.54
48053;BME280;33824;51.600;5.718;2023-02-11T07:32:07;103244.06;;;7.46;98.49
48053;BME280;33824;51.600;5.718;2023-02-11T07:34:32;103239.06;;;7.41;98.85
48053;BME280;33824;51.600;5.718;2023-02-11T07:36:58;103241.41;;;7.46;98.34
48053;BME280;33824;51.600;5.718;2023-02-11T07:39:23;103233.66;;;7.43;98.65
48053;BME280;33824;51.600;5.718;2023-02-11T07:41:52;103240.59;;;7.45;98.67
48053;BME280;33824;51.600;5.718;2023-02-11T07:44:20;103245.13;;;7.43;99.10
48053;BME280;33824;51.600;5.718;2023-02-11T07:46:45;103244.84;;;7.48;98.79
48053;BME280;33824;51.600;5.718;2023-02-11T07:49:13;103252.53;;;7.52;98.59
48053;BME280;33824;51.600;5.718;2023-02-11T07:51:38;103265.53;;;7.57;98.37
48053;BME280;33824;51.600;5.718;2023-02-11T07:54:04;103264.66;;;7.56;98.64
48053;BME280;33824;51.600;5.718;2023-02-11T07:56:29;103273.56;;;7.55;98.91
48053;BME280;33824;51.600;5.718;2023-02-11T07:58:58;103263.22;;;7.51;98.96
48053;BME280;33824;51.600;5.718;2023-02-11T08:01:25;103258.97;;;7.62;98.45
48053;BME280;33824;51.600;5.718;2023-02-11T08:03:56;103260.56;;;7.51;99.15
48053;BME280;33824;51.600;5.718;2023-02-11T08:06:27;103264.34;;;7.61;99.17
48053;BME280;33824;51.600;5.718;2023-02-11T08:08:53;103268.91;;;7.59;99.15
48053;BME280;33824;51.600;5.718;2023-02-11T08:11:23;103270.53;;;7.61;99.57
48053;BME280;33824;51.600;5.718;2023-02-11T08:13:49;103264.19;;;7.64;99.56
48053;BME280;33824;51.600;5.718;2023-02-11T08:16:21;103265.22;;;7.61;98.77
48053;BME280;33824;51.600;5.718;2023-02-11T08:18:48;103263.03;;;7.68;99.44
48053;BME280;33824;51.600;5.718;2023-02-11T08:21:14;103270.03;;;7.69;99.48
48053;BME280;33824;51.600;5.718;2023-02-11T08:23:42;103272.41;;;7.73;98.99
48053;BME280;33824;51.600;5.718;2023-02-11T08:26:14;103273.47;;;7.71;98.73
48053;BME280;33824;51.600;5.718;2023-02-11T08:28:42;103286.63;;;7.72;99.33
48053;BME280;33824;51.600;5.718;2023-02-11T08:31:10;103284.09;;;7.71;99.36
48053;BME280;33824;51.600;5.718;2023-02-11T08:33:36;103284.75;;;7.75;99.52
48053;BME280;33824;51.600;5.718;2023-02-11T08:36:13;103276.81;;;7.60;99.52
48053;BME280;33824;51.600;5.718;2023-02-11T08:38:39;103284.84;;;7.73;99.80
48053;BME280;33824;51.600;5.718;2023-02-11T08:41:05;103279.91;;;7.81;99.66
48053;BME280;33824;51.600;5.718;2023-02-11T08:43:31;103283.41;;;7.82;99.63
48053;BME280;33824;51.600;5.718;2023-02-11T08:45:58;103280.56;;;7.85;99.61
48053;BME280;33824;51.600;5.718;2023-02-11T08:48:23;103283.22;;;7.85;99.14
48053;BME280;33824;51.600;5.718;2023-02-11T08:50:49;103278.47;;;7.90;99.43
48053;BME280;33824;51.600;5.718;2023-02-11T08:53:14;103273.06;;;7.91;99.58
48053;BME280;33824;51.600;5.718;2023-02-11T08:55:47;103288.53;;;7.85;99.30
48053;BME280;33824;51.600;5.718;2023-02-11T08:58:12;103287.00;;;7.95;99.61
48053;BME280;33824;51.600;5.718;2023-02-11T09:00:38;103292.97;;;7.98;99.36
48053;BME280;33824;51.600;5.718;2023-02-11T09:03:03;103288.41;;;8.00;99.39
48053;BME280;33824;51.600;5.718;2023-02-11T09:05:29;103288.19;;;8.03;99.50
48053;BME280;33824;51.600;5.718;2023-02-11T09:07:54;103284.09;;;8.12;99.02
48053;BME280;33824;51.600;5.718;2023-02-11T09:10:20;103288.84;;;8.07;98.80
48053;BME280;33824;51.600;5.718;2023-02-11T09:12:45;103293.63;;;8.02;99.37
48053;BME280;33824;51.600;5.718;2023-02-11T09:15:11;103296.16;;;8.03;99.57
48053;BME280;33824;51.600;5.718;2023-02-11T09:17:36;103298.94;;;8.02;99.43
48053;BME280;33824;51.600;5.718;2023-02-11T09:20:02;103298.25;;;8.12;99.81
48053;BME280;33824;51.600;5.718;2023-02-11T09:22:28;103298.06;;;8.15;99.16
48053;BME280;33824;51.600;5.718;2023-02-11T09:24:54;103305.06;;;8.16;99.29
48053;BME280;33824;51.600;5.718;2023-02-11T09:27:19;103307.03;;;8.27;99.11
48053;BME280;33824;51.600;5.718;2023-02-11T09:29:45;103310.63;;;8.26;98.70
48053;BME280;33824;51.600;5.718;2023-02-11T09:32:10;103317.66;;;8.27;99.02
48053;BME280;33824;51.600;5.718;2023-02-11T09:34:36;103316.06;;;8.25;98.81
48053;BME280;33824;51.600;5.718;2023-02-11T09:37:01;103316.72;;;8.28;98.88
48053;BME280;33824;51.600;5.718;2023-02-11T09:39:27;103318.63;;;8.26;99.43
48053;BME280;33824;51.600;5.718;2023-02-11T09:44:45;103320.63;;;8.37;98.91
48053;BME280;33824;51.600;5.718;2023-02-11T09:47:23;103317.47;;;8.44;98.66
48053;BME280;33824;51.600;5.718;2023-02-11T09:49:52;103319.72;;;8.50;98.22
48053;BME280;33824;51.600;5.718;2023-02-11T09:52:31;103326.41;;;8.43;97.81
48053;BME280;33824;51.600;5.718;2023-02-11T09:55:04;103333.88;;;8.51;98.22
48053;BME280;33824;51.600;5.718;2023-02-11T09:57:34;103338.28;;;8.64;97.70
48053;BME280;33824;51.600;5.718;2023-02-11T10:00:06;103334.03;;;8.62;98.08
48053;BME280;33824;51.600;5.718;2023-02-11T10:05:59;103344.38;;;8.52;97.41
48053;BME280;33824;51.600;5.718;2023-02-11T10:16:13;103350.84;;;8.75;97.62
48053;BME280;33824;51.600;5.718;2023-02-11T10:21:22;103365.13;;;8.74;97.19
48053;BME280;33824;51.600;5.718;2023-02-11T10:23:53;103365.66;;;8.79;97.61
48053;BME280;33824;51.600;5.718;2023-02-11T10:26:21;103370.38;;;8.88;97.85
48053;BME280;33824;51.600;5.718;2023-02-11T10:28:49;103363.69;;;8.95;97.43
48053;BME280;33824;51.600;5.718;2023-02-11T10:31:26;103371.34;;;8.87;97.38
48053;BME280;33824;51.600;5.718;2023-02-11T10:34:01;103383.59;;;8.90;96.85
48053;BME280;33824;51.600;5.718;2023-02-11T10:36:31;103372.97;;;9.02;96.63
48053;BME280;33824;51.600;5.718;2023-02-11T10:39:21;103376.22;;;8.81;96.46
48053;BME280;33824;51.600;5.718;2023-02-11T10:42:10;103377.81;;;8.83;96.93
48053;BME280;33824;51.600;5.718;2023-02-11T10:44:59;103380.22;;;9.00;96.93
48053;BME280;33824;51.600;5.718;2023-02-11T10:47:26;103382.59;;;9.05;96.86
48053;BME280;33824;51.600;5.718;2023-02-11T10:49:52;103386.84;;;9.07;97.17
48053;BME280;33824;51.600;5.718;2023-02-11T10:52:22;103384.09;;;9.09;96.53
48053;BME280;33824;51.600;5.718;2023-02-11T10:55:19;103395.47;;;9.11;95.78
48053;BME280;33824;51.600;5.718;2023-02-11T10:57:54;103393.78;;;9.23;95.81
48053;BME280;33824;51.600;5.718;2023-02-11T11:00:33;103396.38;;;9.24;95.02
48053;BME280;33824;51.600;5.718;2023-02-11T11:03:03;103397.09;;;9.26;95.94
48053;BME280;33824;51.600;5.718;2023-02-11T11:05:45;103392.59;;;9.14;95.71
48053;BME280;33824;51.600;5.718;2023-02-11T11:08:12;103395.19;;;9.28;95.76
48053;BME280;33824;51.600;5.718;2023-02-11T11:10:47;103391.47;;;9.31;95.17
48053;BME280;33824;51.600;5.718;2023-02-11T11:13:33;103389.13;;;9.26;95.15
48053;BME280;33824;51.600;5.718;2023-02-11T11:18:37;103385.13;;;9.58;95.07
48053;BME280;33824;51.600;5.718;2023-02-11T11:21:22;103395.78;;;9.58;94.04
48053;BME280;33824;51.600;5.718;2023-02-11T11:23:59;103399.19;;;9.73;94.46
48053;BME280;33824;51.600;5.718;2023-02-11T11:26:29;103402.78;;;9.72;94.16
48053;BME280;33824;51.600;5.718;2023-02-11T11:29:09;103392.97;;;9.60;94.09
48053;BME280;33824;51.600;5.718;2023-02-11T11:31:55;103388.81;;;9.56;94.04
48053;BME280;33824;51.600;5.718;2023-02-11T11:34:32;103389.38;;;9.61;94.34
48053;BME280;33824;51.600;5.718;2023-02-11T11:37:00;103399.06;;;9.75;94.30
48053;BME280;33824;51.600;5.718;2023-02-11T11:39:34;103393.81;;;9.86;94.47
48053;BME280;33824;51.600;5.718;2023-02-11T11:42:02;103395.00;;;9.94;94.17
48053;BME280;33824;51.600;5.718;2023-02-11T11:44:30;103397.25;;;9.88;94.38
48053;BME280;33824;51.600;5.718;2023-02-11T11:52:24;103393.00;;;9.73;94.45
48053;BME280;33824;51.600;5.718;2023-02-11T11:55:02;103384.78;;;9.63;93.84
48053;BME280;33824;51.600;5.718;2023-02-11T11:57:30;103378.38;;;9.91;94.70
48053;BME280;33824;51.600;5.718;2023-02-11T11:59:58;103382.72;;;10.04;94.17
48053;BME280;33824;51.600;5.718;2023-02-11T12:05:26;103374.94;;;10.01;92.84
48053;BME280;33824;51.600;5.718;2023-02-11T12:08:02;103368.44;;;10.18;93.77
48053;BME280;33824;51.600;5.718;2023-02-11T12:11:03;103369.53;;;10.16;92.14
48053;BME280;33824;51.600;5.718;2023-02-11T12:16:35;103369.00;;;10.23;92.26
48053;BME280;33824;51.600;5.718;2023-02-11T12:25:23;103364.50;;;10.11;91.71
48053;BME280;33824;51.600;5.718;2023-02-11T12:28:12;103362.13;;;10.32;91.99
48053;BME280;33824;51.600;5.718;2023-02-11T12:31:15;103363.78;;;10.45;91.44
48053;BME280;33824;51.600;5.718;2023-02-11T12:33:58;103357.31;;;10.37;90.42
48053;BME280;33824;51.600;5.718;2023-02-11T12:53:01;103341.00;;;10.65;89.38
48053;BME280;33824;51.600;5.718;2023-02-11T12:55:36;103338.50;;;10.86;89.52
48053;BME280;33824;51.600;5.718;2023-02-11T12:58:03;103338.03;;;10.92;89.17
48053;BME280;33824;51.600;5.718;2023-02-11T13:00:54;103333.06;;;10.87;88.59
48053;BME280;33824;51.600;5.718;2023-02-11T13:03:25;103333.44;;;10.94;88.33
48053;BME280;33824;51.600;5.718;2023-02-11T13:05:57;103336.97;;;10.94;88.08
48053;BME280;33824;51.600;5.718;2023-02-11T13:08:29;103333.88;;;10.29;89.33
48053;BME280;33824;51.600;5.718;2023-02-11T13:11:06;103335.75;;;10.64;89.43
48053;BME280;33824;51.600;5.718;2023-02-11T13:13:45;103349.47;;;10.94;88.78
48053;BME280;33824;51.600;5.718;2023-02-11T13:16:24;103347.47;;;10.85;87.99
48053;BME280;33824;51.600;5.718;2023-02-11T13:21:44;103348.53;;;11.06;88.40
48053;BME280;33824;51.600;5.718;2023-02-11T13:27:00;103351.31;;;11.04;87.65
48053;BME280;33824;51.600;5.718;2023-02-11T13:32:11;103348.22;;;10.87;88.49
48053;BME280;33824;51.600;5.718;2023-02-11T13:37:35;103344.31;;;10.80;88.02
48053;BME280;33824;51.600;5.718;2023-02-11T13:40:25;103340.00;;;10.90;87.85
48053;BME280;33824;51.600;5.718;2023-02-11T13:42:56;103337.25;;;11.02;88.85
48053;BME280;33824;51.600;5.718;2023-02-11T13:45:43;103343.56;;;11.01;88.42
48053;BME280;33824;51.600;5.718;2023-02-11T13:48:19;103338.84;;;11.16;88.32
48053;BME280;33824;51.600;5.718;2023-02-11T13:50:48;103341.00;;;11.11;88.43
48053;BME280;33824;51.600;5.718;2023-02-11T13:53:15;103333.00;;;11.11;88.73
48053;BME280;33824;51.600;5.718;2023-02-11T13:55:48;103336.19;;;11.16;88.46
48053;BME280;33824;51.600;5.718;2023-02-11T13:58:15;103341.91;;;11.23;88.52
48053;BME280;33824;51.600;5.718;2023-02-11T14:00:45;103341.09;;;11.33;88.31
48053;BME280;33824;51.600;5.718;2023-02-11T14:19:36;103354.56;;;10.97;88.30
48053;BME280;33824;51.600;5.718;2023-02-11T14:22:12;103350.25;;;11.07;88.38
48053;BME280;33824;51.600;5.718;2023-02-11T14:27:26;103357.09;;;11.22;87.99
48053;BME280;33824;51.600;5.718;2023-02-11T14:30:03;103349.78;;;11.13;88.09
48053;BME280;33824;51.600;5.718;2023-02-11T14:41:20;103344.28;;;11.03;88.38
48053;BME280;33824;51.600;5.718;2023-02-11T14:43:52;103348.53;;;11.06;88.52
48053;BME280;33824;51.600;5.718;2023-02-11T14:46:21;103357.03;;;11.11;88.51
48053;BME280;33824;51.600;5.718;2023-02-11T14:48:49;103350.47;;;11.04;88.84
48053;BME280;33824;51.600;5.718;2023-02-11T14:51:19;103364.06;;;11.01;89.23
48053;BME280;33824;51.600;5.718;2023-02-11T14:53:49;103363.72;;;11.05;89.03
48053;BME280;33824;51.600;5.718;2023-02-11T14:56:23;103355.00;;;11.15;88.85
48053;BME280;33824;51.600;5.718;2023-02-11T14:58:51;103357.69;;;11.15;88.84
48053;BME280;33824;51.600;5.718;2023-02-11T15:01:40;103358.09;;;10.97;88.59
48053;BME280;33824;51.600;5.718;2023-02-11T15:04:23;103356.09;;;10.88;88.34
48053;BME280;33824;51.600;5.718;2023-02-11T15:06:49;103351.91;;;10.97;89.44
48053;BME280;33824;51.600;5.718;2023-02-11T15:09:17;103358.13;;;11.08;88.98